createdAt,value
2022-12-01T00:03:16.689Z,4.70
2022-12-01T00:08:19.630Z,4.70
2022-12-01T00:13:21.201Z,5.30
2022-12-01T00:18:22.769Z,5.00
2022-12-01T00:23:24.434Z,5.50
2022-12-01T00:28:25.996Z,4.83
2022-12-01T00:33:27.683Z,4.93
2022-12-01T00:38:29.254Z,5.10
2022-12-01T00:43:30.851Z,5.27
2022-12-01T00:48:32.470Z,4.57
2022-12-01T00:53:34.158Z,5.20
2022-12-01T00:58:35.972Z,6.50
2022-12-01T01:03:37.875Z,6.17
2022-12-01T01:08:40.430Z,7.00
2022-12-01T01:13:42.054Z,6.10
2022-12-01T01:18:43.732Z,5.00
2022-12-01T01:23:45.431Z,5.60
2022-12-01T01:28:48.591Z,5.23
2022-12-01T01:33:50.344Z,5.33
2022-12-01T01:38:51.948Z,5.93
2022-12-01T01:44:02.895Z,5.10
2022-12-01T01:49:05.346Z,5.37
2022-12-01T01:54:15.608Z,5.20
2022-12-01T01:59:21.576Z,4.67
2022-12-01T02:04:24.921Z,5.00
2022-12-01T02:09:27.587Z,5.07
2022-12-01T02:14:39.153Z,5.23
2022-12-01T02:19:56.492Z,4.77
2022-12-01T02:25:03.916Z,5.30
2022-12-01T02:30:09.242Z,5.73
2022-12-01T02:35:14.896Z,5.50
2022-12-01T02:40:24.733Z,5.30
2022-12-01T02:45:43.822Z,5.40
2022-12-01T02:50:46.041Z,5.57
2022-12-01T02:55:53.882Z,5.80
2022-12-01T03:01:12.838Z,6.37
2022-12-01T03:06:37.187Z,6.00
2022-12-01T03:11:56.942Z,6.43
2022-12-01T03:17:04.345Z,6.13
2022-12-01T03:22:11.461Z,7.03
2022-12-01T03:27:14.031Z,6.77
2022-12-01T03:32:24.258Z,7.23
2022-12-01T03:37:40.339Z,6.90
2022-12-01T03:42:46.733Z,7.30
2022-12-01T03:47:48.419Z,7.77
2022-12-01T03:53:11.768Z,6.93
2022-12-01T03:58:37.533Z,7.30
2022-12-01T04:03:39.076Z,7.43
2022-12-01T04:08:40.655Z,8.00
2022-12-01T04:13:42.310Z,7.97
2022-12-01T04:18:43.888Z,8.00
2022-12-01T04:24:00.309Z,8.50
2022-12-01T04:29:04.799Z,8.20
2022-12-01T04:34:06.782Z,8.20
2022-12-01T04:39:08.392Z,8.33
2022-12-01T04:44:11.065Z,8.60
2022-12-01T04:49:12.801Z,8.60
2022-12-01T04:54:15.288Z,9.57
2022-12-01T04:59:17.384Z,8.73
2022-12-01T05:04:19.013Z,8.83
2022-12-01T05:09:21.342Z,9.07
2022-12-01T05:14:22.938Z,8.10
2022-12-01T05:19:56.719Z,9.40
2022-12-01T05:24:58.350Z,9.33
2022-12-01T05:30:00.321Z,9.47
2022-12-01T05:35:01.922Z,8.87
2022-12-01T05:40:03.738Z,8.73
2022-12-01T05:45:05.772Z,9.30
2022-12-01T05:50:08.106Z,9.57
2022-12-01T05:55:09.886Z,10.00
2022-12-01T06:00:13.285Z,10.30
2022-12-01T06:05:14.893Z,9.73
2022-12-01T06:10:16.736Z,12.53
2022-12-01T06:15:18.352Z,10.77
2022-12-01T06:20:19.924Z,9.77
2022-12-01T06:25:21.492Z,10.37
2022-12-01T06:30:23.522Z,10.00
2022-12-01T06:35:25.318Z,10.17
2022-12-01T06:40:27.543Z,10.53
2022-12-01T06:45:30.140Z,10.80
2022-12-01T06:50:31.796Z,10.10
2022-12-01T06:55:34.139Z,9.83
2022-12-01T07:00:35.943Z,9.87
2022-12-01T07:05:37.817Z,10.67
2022-12-01T07:10:39.442Z,9.93
2022-12-01T07:15:40.933Z,9.50
2022-12-01T07:20:42.535Z,10.67
2022-12-01T07:25:44.094Z,10.20
2022-12-01T07:30:46.685Z,9.17
2022-12-01T07:35:48.285Z,9.67
2022-12-01T07:40:49.841Z,10.07
2022-12-01T07:45:52.735Z,9.67
2022-12-01T07:50:55.753Z,9.40
2022-12-01T07:55:57.421Z,10.40
2022-12-01T08:00:59.377Z,10.87
2022-12-01T08:06:02.149Z,11.20
2022-12-01T08:11:10.320Z,10.87
2022-12-01T08:16:14.500Z,11.00
2022-12-01T08:21:18.608Z,10.00
2022-12-01T08:26:20.828Z,10.37
2022-12-01T08:31:28.142Z,10.90
2022-12-01T08:36:29.856Z,9.53
2022-12-01T08:41:31.773Z,10.00
2022-12-01T08:46:35.107Z,10.87
2022-12-01T08:51:36.703Z,10.63
2022-12-01T08:56:41.676Z,9.47
2022-12-01T09:01:57.393Z,10.87
2022-12-01T09:06:59.241Z,9.40
2022-12-01T09:12:00.787Z,9.37
2022-12-01T09:17:02.330Z,10.07
2022-12-01T09:22:03.868Z,10.13
2022-12-01T09:27:06.221Z,8.80
2022-12-01T09:32:08.129Z,8.93
2022-12-01T09:37:09.755Z,9.50
2022-12-01T09:42:16.478Z,8.77
2022-12-01T09:47:21.509Z,8.67
2022-12-01T09:52:24.662Z,8.20
2022-12-01T09:57:35.393Z,8.50
2022-12-01T10:02:41.296Z,7.03
2022-12-01T10:07:50.719Z,6.50
2022-12-01T10:12:52.481Z,7.00
2022-12-01T10:18:26.127Z,7.03
2022-12-01T10:23:30.666Z,6.90
2022-12-01T10:28:36.349Z,7.07
2022-12-01T10:33:46.675Z,6.73
2022-12-01T10:38:48.315Z,6.17
2022-12-01T10:43:52.731Z,6.20
2022-12-01T10:48:59.519Z,6.17
2022-12-01T10:54:08.002Z,6.73
2022-12-01T10:59:43.415Z,6.37
2022-12-01T11:04:51.767Z,6.00
2022-12-01T11:10:18.172Z,5.77
2022-12-01T11:15:22.855Z,5.73
2022-12-01T11:20:31.700Z,5.70
2022-12-01T11:25:33.285Z,6.20
2022-12-01T11:30:34.899Z,5.43
2022-12-01T11:35:37.585Z,6.00
2022-12-01T11:40:51.501Z,5.47
2022-12-01T11:45:54.819Z,6.07
2022-12-01T11:51:07.395Z,5.80
2022-12-01T11:56:23.625Z,5.73
2022-12-01T12:01:47.812Z,6.30
2022-12-01T12:07:14.488Z,6.53
2022-12-01T12:12:41.161Z,6.57
2022-12-01T12:18:20.718Z,7.07
2022-12-01T12:23:40.531Z,7.40
2022-12-01T12:29:23.282Z,8.33
2022-12-01T12:34:52.596Z,8.90
2022-12-01T12:39:57.219Z,8.13
2022-12-01T12:45:19.054Z,8.20
2022-12-01T12:50:59.015Z,8.20
2022-12-01T12:56:05.595Z,9.33
2022-12-01T13:01:12.970Z,9.63
2022-12-01T13:06:41.880Z,9.63
2022-12-01T13:12:15.944Z,9.57
2022-12-01T13:17:27.089Z,9.17
2022-12-01T13:22:32.251Z,10.73
2022-12-01T13:27:38.530Z,11.70
2022-12-01T13:32:40.761Z,11.03
2022-12-01T13:37:42.480Z,11.03
2022-12-01T13:42:52.876Z,11.53
2022-12-01T13:47:55.859Z,12.23
2022-12-01T13:53:11.231Z,12.60
2022-12-01T13:58:14.192Z,12.40
2022-12-01T14:03:16.692Z,12.63
2022-12-01T14:08:33.490Z,11.33
2022-12-01T14:13:50.404Z,11.97
2022-12-01T14:18:56.022Z,12.17
2022-12-01T14:24:04.966Z,13.73
2022-12-01T14:29:09.699Z,13.07
2022-12-01T14:34:18.870Z,13.37
2022-12-01T14:39:23.427Z,13.23
2022-12-01T14:44:33.830Z,12.83
2022-12-01T14:50:15.068Z,12.50
2022-12-01T14:55:20.500Z,13.30
2022-12-01T15:00:24.204Z,12.30
2022-12-01T15:05:27.716Z,12.13
2022-12-01T15:10:36.929Z,12.53
2022-12-01T15:15:53.441Z,14.27
2022-12-01T15:21:05.395Z,13.57
2022-12-01T15:26:06.955Z,12.17
2022-12-01T15:31:11.691Z,12.27
2022-12-01T15:36:13.518Z,11.57
2022-12-01T15:41:29.089Z,11.57
2022-12-01T15:46:34.368Z,11.77
2022-12-01T15:51:36.152Z,12.37
2022-12-01T15:56:39.774Z,11.47
2022-12-01T16:01:43.335Z,12.53
2022-12-01T16:06:59.806Z,14.13
2022-12-01T16:12:20.133Z,13.27
2022-12-01T16:17:23.303Z,12.80
2022-12-01T16:22:25.096Z,14.40
2022-12-01T16:27:28.569Z,13.80
2022-12-01T16:32:38.264Z,13.40
2022-12-01T16:37:39.879Z,11.77
2022-12-01T16:42:41.697Z,11.97
2022-12-01T16:47:44.854Z,13.30
2022-12-01T16:52:46.852Z,13.00
2022-12-01T16:57:48.492Z,12.80
2022-12-01T17:02:50.655Z,12.93
2022-12-01T17:07:52.770Z,13.73
2022-12-01T17:12:54.720Z,13.37
2022-12-01T17:17:56.287Z,12.40
2022-12-01T17:22:59.252Z,13.43
2022-12-01T17:28:01.020Z,12.97
2022-12-01T17:33:02.904Z,12.87
2022-12-01T17:38:04.837Z,12.53
2022-12-01T17:43:07.635Z,13.50
2022-12-01T17:48:10.779Z,12.83
2022-12-01T17:53:12.516Z,11.93
2022-12-01T17:58:14.329Z,13.13
2022-12-01T18:03:17.301Z,13.10
2022-12-01T18:08:18.896Z,13.23
2022-12-01T18:13:21.529Z,16.90
2022-12-01T18:18:23.207Z,14.83
2022-12-01T18:23:26.482Z,13.83
2022-12-01T18:28:28.421Z,14.80
2022-12-01T18:33:36.836Z,13.23
2022-12-01T18:38:40.207Z,12.83
2022-12-01T18:43:42.178Z,15.00
2022-12-01T18:48:52.771Z,14.53
2022-12-01T18:53:55.353Z,15.50
2022-12-01T18:59:00.089Z,14.87
2022-12-01T19:04:02.233Z,14.93
2022-12-01T19:09:05.920Z,13.87
2022-12-01T19:14:09.661Z,14.90
2022-12-01T19:19:11.379Z,14.60
2022-12-01T19:24:13.254Z,15.00
2022-12-01T19:29:14.775Z,13.63
2022-12-01T19:34:16.410Z,13.80
2022-12-01T19:39:17.964Z,14.07
2022-12-01T19:44:19.829Z,13.47
2022-12-01T19:49:21.441Z,13.90
2022-12-01T19:54:23.023Z,13.97
2022-12-01T19:59:24.604Z,13.07
2022-12-01T20:04:26.247Z,13.03
2022-12-01T20:09:27.983Z,13.73
2022-12-01T20:14:30.634Z,14.00
2022-12-01T20:19:32.464Z,13.67
2022-12-01T20:24:35.969Z,12.10
2022-12-01T20:29:37.671Z,11.83
2022-12-01T20:34:39.944Z,12.97
2022-12-01T20:39:41.674Z,11.60
2022-12-01T20:44:43.292Z,11.83
2022-12-01T20:49:45.404Z,11.67
2022-12-01T20:54:47.012Z,13.53
2022-12-01T20:59:48.608Z,12.13
2022-12-01T21:04:52.276Z,12.33
2022-12-01T21:09:55.917Z,12.00
2022-12-01T21:15:02.129Z,12.83
2022-12-01T21:20:09.853Z,12.07
2022-12-01T21:25:18.633Z,11.37
2022-12-01T21:30:25.763Z,11.93
2022-12-01T21:35:27.631Z,12.60
2022-12-01T21:40:29.372Z,11.57
2022-12-01T21:45:32.116Z,11.03
2022-12-01T21:50:33.844Z,10.87
2022-12-01T21:55:37.718Z,11.97
2022-12-01T22:00:39.749Z,11.37
2022-12-01T22:06:01.091Z,10.53
2022-12-01T22:11:20.738Z,10.43
2022-12-01T22:16:29.874Z,9.73
2022-12-01T22:21:33.566Z,10.67
2022-12-01T22:26:41.169Z,9.83
2022-12-01T22:31:42.888Z,10.37
2022-12-01T22:36:44.703Z,9.20
2022-12-01T22:41:46.396Z,9.37
2022-12-01T22:46:48.175Z,9.40
2022-12-01T22:52:10.088Z,8.93
2022-12-01T22:57:25.496Z,8.07
2022-12-01T23:02:31.928Z,7.80
2022-12-01T23:07:34.419Z,8.37
2022-12-01T23:12:37.214Z,8.27
2022-12-01T23:17:40.633Z,8.07
2022-12-01T23:22:42.400Z,7.80
2022-12-01T23:27:48.651Z,8.13
2022-12-01T23:33:15.946Z,8.20
2022-12-01T23:38:35.233Z,8.40
2022-12-01T23:43:42.110Z,8.33
2022-12-01T23:48:46.463Z,8.50
2022-12-01T23:53:48.153Z,8.17
2022-12-01T23:58:50.724Z,8.20
